Terminal Aerodrome Forecast
Issued by NWS Quad Cities IA IL

Home | Current Version | Previous Version | Text Only | Print | Product List | Glossary On
Versions: 1 2 3 4 5 6 7 8 9 10 11 12 13 14 15 16 17 18 19 20
000
FTUS43 KDVN 160803 AAA
TAFMLI
TAF AMD
KMLI 160803Z 1608/1706 10003KT 5SM -FZDZ BR BKN020
     FM161000 10004KT 3SM -FZRA BR OVC012
     FM161100 10005KT 3SM -FZRA BR OVC004
     FM161400 10008KT 1SM RA BR OVC004
     FM170200 08005KT 1SM -RA BR OVC003=

USA.gov is the U.S. government's official web portal to all federal, state and local government web resources and services.